Time;durP1;ratioP1;P1;durP2;ratioP2;P2;SDS_P1;SDS_P2;PMS_P1;PMS_P2;Temp;Humidity;BMP_temperature;BMP_pressure;BME280_temperature;BME280_humidity;BME280_pressure;Samples;Min_cycle;Max_cycle;Signal;HPM_P1;HPM_P2
2021/12/14 00:01:35;;;;;;;19.27;14.50;;;8.80;99.90;;;;;;5105645;28;20071;-65
2021/12/14 00:04:25;;;;;;;21.67;14.27;;;8.80;99.90;;;;;;5124364;28;20043;-67
2021/12/14 00:06:54;;;;;;;20.02;13.93;;;8.90;99.90;;;;;;5104023;28;20058;-67
2021/12/14 00:09:29;;;;;;;21.05;14.93;;;8.80;99.90;;;;;;5105506;28;20047;-65
2021/12/14 00:15:03;;;;;;;20.10;14.77;;;8.80;99.90;;;;;;5123391;28;20071;-64
2021/12/14 00:17:37;;;;;;;21.40;14.25;;;8.80;99.90;;;;;;5105038;28;20055;-64
2021/12/14 00:20:14;;;;;;;19.75;14.50;;;8.80;99.90;;;;;;5123963;28;20036;-64
2021/12/14 00:25:32;;;;;;;21.48;14.82;;;8.80;99.90;;;;;;5121588;28;20104;-68
2021/12/14 00:28:01;;;;;;;18.65;14.45;;;8.80;99.90;;;;;;5105695;28;20416;-68
2021/12/14 00:30:27;;;;;;;19.95;15.38;;;8.80;99.90;;;;;;5123987;28;20040;-68
2021/12/14 00:32:53;;;;;;;18.88;15.20;;;8.80;99.90;;;;;;5123594;28;20078;-66
2021/12/14 00:35:20;;;;;;;19.92;14.68;;;8.80;99.90;;;;;;5123541;28;20095;-68
2021/12/14 00:37:52;;;;;;;19.15;14.00;;;8.80;99.90;;;;;;5122955;28;20505;-67
2021/12/14 00:40:29;;;;;;;20.52;13.77;;;8.80;99.90;;;;;;5104989;28;20039;-67
2021/12/14 00:42:56;;;;;;;22.35;14.80;;;8.80;99.90;;;;;;5123927;28;20114;-67
2021/12/14 00:45:24;;;;;;;22.55;14.98;;;8.80;99.90;;;;;;5123613;28;20054;-67
2021/12/14 00:47:51;;;;;;;22.30;13.73;;;8.80;99.90;;;;;;5123327;28;20071;-67
2021/12/14 00:50:20;;;;;;;19.85;13.77;;;8.80;99.90;;;;;;5104919;28;20096;-68
2021/12/14 00:52:47;;;;;;;19.85;14.18;;;8.80;99.90;;;;;;5123497;28;20048;-67
2021/12/14 00:55:15;;;;;;;21.17;13.43;;;8.80;99.90;;;;;;5123202;28;20051;-67
2021/12/14 00:57:41;;;;;;;20.10;13.90;;;8.80;99.90;;;;;;5101114;28;20054;-67
2021/12/14 01:00:11;;;;;;;19.98;13.52;;;8.80;99.90;;;;;;5087380;28;20044;-67
2021/12/14 01:02:38;;;;;;;18.83;13.48;;;8.80;99.90;;;;;;5123016;28;20145;-67
2021/12/14 01:05:15;;;;;;;17.00;13.35;;;8.80;99.90;;;;;;5123125;28;20106;-67
2021/12/14 01:07:41;;;;;;;19.50;14.05;;;8.80;99.90;;;;;;5104661;28;20047;-67
2021/12/14 01:10:28;;;;;;;18.42;13.02;;;8.80;99.90;;;;;;5123172;28;20396;-67
2021/12/14 01:12:59;;;;;;;17.98;12.95;;;8.80;99.90;;;;;;5123082;28;20478;-67
2021/12/14 01:21:45;;;;;;;20.85;13.25;;;8.80;99.90;;;;;;5116986;28;20048;-67
2021/12/14 01:27:03;;;;;;;17.88;13.73;;;8.70;99.90;;;;;;5122817;28;20067;-67
2021/12/14 01:29:29;;;;;;;19.70;14.05;;;8.80;99.90;;;;;;5122506;28;20551;-67
2021/12/14 01:31:59;;;;;;;;;;;8.70;99.90;;;;;;5122977;28;20093;-67
2021/12/14 01:34:26;;;;;;;18.15;12.95;;;8.70;99.90;;;;;;5122672;28;19923;-67
2021/12/14 01:36:56;;;;;;;;;;;8.70;99.90;;;;;;5123233;28;20086;-67
2021/12/14 01:42:06;;;;;;;17.90;14.90;;;8.70;99.90;;;;;;5122982;28;20371;-68
2021/12/14 01:44:44;;;;;;;21.80;14.30;;;8.70;99.90;;;;;;5122998;28;20058;-68
2021/12/14 01:47:15;;;;;;;18.92;14.38;;;8.70;99.90;;;;;;5104141;28;20048;-68
2021/12/14 01:49:42;;;;;;;19.45;14.27;;;8.80;99.90;;;;;;5126054;28;20104;-68
2021/12/14 01:52:12;;;;;;;20.50;15.25;;;8.70;99.90;;;;;;5126383;28;20096;-67
2021/12/14 01:54:43;;;;;;;24.17;15.98;;;8.80;99.90;;;;;;5108734;28;20043;-68
2021/12/14 01:57:12;;;;;;;21.42;14.05;;;8.80;99.90;;;;;;5103414;28;20055;-68
2021/12/14 01:59:41;;;;;;;22.02;15.27;;;8.80;99.90;;;;;;5126777;28;20062;-68
2021/12/14 02:02:28;;;;;;;19.95;14.95;;;8.80;99.90;;;;;;5126349;28;20060;-68
2021/12/14 02:04:54;;;;;;;22.08;14.80;;;8.80;99.90;;;;;;5108522;28;20047;-67
2021/12/14 02:07:22;;;;;;;21.77;15.02;;;8.80;99.90;;;;;;5126623;28;20117;-67
2021/12/14 02:09:59;;;;;;;24.95;16.30;;;8.70;99.90;;;;;;5126974;28;20036;-68
2021/12/14 02:12:29;;;;;;;22.58;16.27;;;8.70;99.90;;;;;;5126067;28;20063;-68
2021/12/14 02:15:13;;;;;;;23.85;16.23;;;8.70;99.90;;;;;;5126414;28;20097;-68
2021/12/14 02:17:40;;;;;;;23.05;15.98;;;8.70;99.90;;;;;;5103543;28;20049;-68
2021/12/14 02:20:08;;;;;;;21.13;16.77;;;8.70;99.90;;;;;;5119229;28;20036;-68
2021/12/14 02:22:34;;;;;;;25.52;17.83;;;8.70;99.90;;;;;;5096622;28;20032;-67
2021/12/14 02:25:00;;;;;;;21.98;16.63;;;8.70;99.90;;;;;;5117483;28;20040;-68
2021/12/14 02:27:40;;;;;;;23.55;17.90;;;8.70;99.90;;;;;;5117162;28;20060;-68
2021/12/14 02:30:10;;;;;;;23.70;17.40;;;8.70;99.90;;;;;;5122121;28;20047;-67
2021/12/14 02:32:35;;;;;;;27.08;18.50;;;8.70;99.90;;;;;;5125856;28;20493;-67
2021/12/14 02:35:05;;;;;;;24.90;18.85;;;8.70;99.90;;;;;;5119214;28;20036;-67
2021/12/14 02:37:45;;;;;;;25.38;19.20;;;8.70;99.90;;;;;;5103021;28;20047;-68
2021/12/14 02:40:54;;;;;;;25.80;18.52;;;8.70;99.90;;;;;;5121302;28;20513;-68
2021/12/14 02:43:29;;;;;;;27.00;20.27;;;8.60;99.90;;;;;;5087630;28;20054;-68
2021/12/14 02:46:17;;;;;;;27.42;19.38;;;8.60;99.90;;;;;;5099364;28;20048;-68
2021/12/14 02:48:48;;;;;;;27.58;19.88;;;8.60;99.90;;;;;;5105214;28;20107;-68
2021/12/14 02:51:19;;;;;;;27.67;19.77;;;8.60;99.90;;;;;;5094116;28;20122;-68
2021/12/14 02:53:47;;;;;;;28.23;20.73;;;8.60;99.90;;;;;;5100400;28;20055;-68
2021/12/14 02:56:16;;;;;;;28.08;20.38;;;8.60;99.90;;;;;;5116362;28;20043;-68
2021/12/14 02:58:43;;;;;;;32.60;20.65;;;8.60;99.90;;;;;;5124170;28;20055;-68
2021/12/14 03:01:10;;;;;;;29.38;20.38;;;8.60;99.90;;;;;;5124574;28;20122;-68
2021/12/14 03:03:36;;;;;;;28.55;20.23;;;8.60;99.90;;;;;;5125508;28;20052;-68
2021/12/14 03:06:05;;;;;;;30.15;20.88;;;8.60;99.90;;;;;;5125151;28;20465;-68
2021/12/14 03:08:36;;;;;;;28.75;21.20;;;8.50;99.90;;;;;;5125265;28;20085;-68
2021/12/14 03:11:11;;;;;;;27.48;20.90;;;8.50;99.90;;;;;;5125484;28;20039;-68
2021/12/14 03:13:51;;;;;;;30.48;21.42;;;8.50;99.90;;;;;;5125057;28;20498;-68
2021/12/14 03:16:29;;;;;;;28.88;21.05;;;8.50;99.90;;;;;;5125080;28;20040;-68
2021/12/14 03:18:57;;;;;;;29.02;20.60;;;8.50;99.90;;;;;;5106336;28;20066;-68
2021/12/14 03:21:30;;;;;;;30.73;21.02;;;8.60;99.90;;;;;;5125169;28;20113;-69
2021/12/14 03:24:09;;;;;;;28.30;20.88;;;8.50;99.90;;;;;;5115986;28;20040;-68
2021/12/14 03:26:38;;;;;;;29.58;21.02;;;8.50;99.90;;;;;;5111435;28;20113;-67
2021/12/14 03:29:08;;;;;;;30.98;21.90;;;8.50;99.90;;;;;;5092777;28;20093;-68
2021/12/14 03:31:43;;;;;;;32.20;21.90;;;8.50;99.90;;;;;;5117250;28;20039;-68
2021/12/14 03:34:12;;;;;;;29.55;21.33;;;8.50;99.90;;;;;;5102728;28;20059;-68
2021/12/14 03:36:48;;;;;;;29.63;21.33;;;8.50;99.90;;;;;;5117854;28;20044;-68
2021/12/14 03:39:16;;;;;;;31.17;21.95;;;8.50;99.90;;;;;;5098309;28;20058;-68
2021/12/14 03:41:50;;;;;;;29.73;22.05;;;8.50;99.90;;;;;;5077661;28;20057;-68
2021/12/14 03:44:23;;;;;;;29.15;21.35;;;8.50;99.90;;;;;;5099455;28;20066;-68
2021/12/14 03:46:54;;;;;;;33.05;22.30;;;8.50;99.90;;;;;;5106271;28;20516;-68
2021/12/14 03:49:24;;;;;;;29.52;22.15;;;8.50;99.90;;;;;;5124215;28;20087;-68
2021/12/14 03:51:51;;;;;;;34.10;21.90;;;8.50;99.90;;;;;;5105702;28;20044;-68
2021/12/14 03:54:18;;;;;;;28.95;22.42;;;8.50;99.90;;;;;;5124362;28;20074;-68
2021/12/14 03:56:45;;;;;;;33.47;22.58;;;8.50;99.90;;;;;;5106020;28;20079;-68
2021/12/14 03:59:11;;;;;;;32.35;22.85;;;8.50;99.90;;;;;;5124047;28;20047;-68
2021/12/14 04:01:40;;;;;;;41.13;24.08;;;8.50;99.90;;;;;;5124587;28;20447;-68
2021/12/14 04:04:23;;;;;;;33.40;23.33;;;8.50;99.90;;;;;;5105141;28;20052;-68
2021/12/14 04:06:53;;;;;;;32.38;22.95;;;8.50;99.90;;;;;;5124543;28;20044;-68
2021/12/14 04:09:23;;;;;;;38.90;24.60;;;8.50;99.90;;;;;;5124078;28;20427;-67
2021/12/14 04:11:49;;;;;;;32.65;22.52;;;8.50;99.90;;;;;;5123708;28;20389;-68
2021/12/14 04:14:15;;;;;;;30.80;23.00;;;8.50;99.90;;;;;;5123672;28;20534;-68
2021/12/14 04:16:44;;;;;;;33.88;24.08;;;8.50;99.90;;;;;;5105703;28;20486;-68
2021/12/14 04:19:14;;;;;;;34.90;24.05;;;8.50;99.90;;;;;;5123327;28;20120;-68
2021/12/14 04:21:43;;;;;;;35.28;23.40;;;8.50;99.90;;;;;;5124302;28;20047;-68
2021/12/14 04:24:11;;;;;;;32.25;22.90;;;8.50;99.90;;;;;;5123789;28;20048;-68
2021/12/14 04:26:43;;;;;;;35.05;22.73;;;8.50;99.90;;;;;;5105741;28;20124;-68
2021/12/14 04:29:09;;;;;;;31.58;23.33;;;8.50;99.90;;;;;;5105296;28;20114;-68
2021/12/14 04:31:36;;;;;;;31.23;23.05;;;8.50;99.90;;;;;;5123744;28;20058;-68
2021/12/14 04:34:03;;;;;;;35.95;23.17;;;8.60;99.90;;;;;;5101869;28;20199;-66
2021/12/14 04:36:30;;;;;;;33.92;24.05;;;8.60;99.90;;;;;;5123703;28;20058;-66
2021/12/14 04:39:04;;;;;;;33.17;23.55;;;8.60;99.90;;;;;;5123585;28;20100;-66
2021/12/14 04:52:42;;;;;;;38.90;24.98;;;8.50;99.90;;;;;;5123438;28;20525;-67
2021/12/14 04:55:10;;;;;;;41.78;26.08;;;8.50;99.90;;;;;;5122900;28;20043;-67
2021/12/14 04:57:45;;;;;;;43.42;26.02;;;8.50;99.90;;;;;;5122632;28;20044;-67
2021/12/14 05:00:29;;;;;;;38.20;25.00;;;8.50;99.90;;;;;;5122675;28;20040;-67
2021/12/14 05:02:57;;;;;;;38.10;25.63;;;8.50;99.90;;;;;;5123212;28;20110;-67
2021/12/14 05:05:39;;;;;;;40.45;27.02;;;8.50;99.90;;;;;;5104655;28;20057;-67
2021/12/14 05:10:45;;;;;;;41.17;27.08;;;8.50;99.90;;;;;;5104450;28;20073;-67
2021/12/14 05:13:12;;;;;;;46.63;27.65;;;8.50;99.90;;;;;;5104819;28;20056;-66
2021/12/14 05:15:40;;;;;;;42.67;28.20;;;8.50;99.90;;;;;;5104515;28;20074;-67
2021/12/14 05:18:14;;;;;;;39.10;27.33;;;8.40;99.90;;;;;;5086635;28;20056;-67
2021/12/14 05:20:42;;;;;;;44.85;27.42;;;8.40;99.90;;;;;;5122615;28;20067;-67
2021/12/14 05:23:08;;;;;;;46.80;28.17;;;8.40;99.90;;;;;;5104528;28;20036;-67
2021/12/14 05:25:34;;;;;;;40.90;26.52;;;8.50;99.90;;;;;;5104145;28;20498;-67
2021/12/14 05:28:02;;;;;;;44.05;27.13;;;8.40;99.90;;;;;;5117941;28;20092;-66
2021/12/14 05:30:40;;;;;;;39.70;26.70;;;8.40;99.90;;;;;;5103986;28;20080;-67
2021/12/14 05:33:12;;;;;;;37.42;26.40;;;8.40;99.90;;;;;;5122141;28;20124;-67
2021/12/14 05:35:40;;;;;;;37.72;27.35;;;8.40;99.90;;;;;;5104424;28;20122;-66
2021/12/14 05:38:17;;;;;;;41.33;27.40;;;8.40;99.90;;;;;;5103974;28;20040;-66
2021/12/14 05:43:28;;;;;;;44.35;28.15;;;8.40;99.90;;;;;;5122914;28;20044;-67
2021/12/14 05:45:57;;;;;;;40.85;28.60;;;8.40;99.90;;;;;;5088708;28;20055;-66
2021/12/14 05:48:26;;;;;;;40.45;27.75;;;8.40;99.90;;;;;;5122160;28;20052;-67
2021/12/14 05:50:55;;;;;;;42.25;28.88;;;8.40;99.90;;;;;;5122808;28;20059;-67
2021/12/14 05:53:31;;;;;;;44.22;29.80;;;8.40;99.90;;;;;;5122643;28;20044;-67
2021/12/14 05:55:59;;;;;;;45.17;28.58;;;8.40;99.90;;;;;;5122680;28;20421;-66
2021/12/14 05:58:26;;;;;;;44.63;28.80;;;8.40;99.90;;;;;;5104493;28;20138;-67
2021/12/14 06:00:54;;;;;;;;;;;8.40;99.90;;;;;;5123000;28;20059;-66
2021/12/14 06:03:27;;;;;;;44.45;28.67;;;8.30;99.90;;;;;;5122372;28;19920;-67
2021/12/14 06:05:55;;;;;;;44.90;29.98;;;8.40;99.90;;;;;;5104258;28;20135;-67
2021/12/14 06:08:24;;;;;;;44.83;29.67;;;8.40;99.90;;;;;;5103769;28;20051;-66
2021/12/14 06:10:51;;;;;;;46.05;29.05;;;8.40;99.90;;;;;;5104264;28;20062;-67
2021/12/14 06:13:18;;;;;;;47.67;29.20;;;8.40;99.90;;;;;;5102869;28;20120;-66
2021/12/14 06:15:45;;;;;;;43.08;28.60;;;8.40;99.90;;;;;;5104194;28;20039;-66
2021/12/14 06:18:12;;;;;;;46.72;30.35;;;8.40;99.90;;;;;;5103472;28;20063;-66
2021/12/14 06:20:42;;;;;;;45.53;28.75;;;8.40;99.90;;;;;;5103845;28;20052;-66
2021/12/14 06:23:08;;;;;;;47.80;30.17;;;8.40;99.90;;;;;;5106163;28;20053;-67
2021/12/14 06:25:34;;;;;;;45.38;29.52;;;8.40;99.90;;;;;;5122688;28;20063;-67
2021/12/14 06:28:01;;;;;;;47.47;29.53;;;8.40;99.90;;;;;;5104015;28;20043;-67
2021/12/14 06:30:32;;;;;;;43.95;28.63;;;8.40;99.90;;;;;;5103857;28;20314;-66
2021/12/14 06:33:02;;;;;;;46.60;28.58;;;8.40;99.90;;;;;;5121283;28;20051;-67
2021/12/14 06:35:40;;;;;;;46.05;30.25;;;8.40;99.90;;;;;;5103411;28;20044;-66
2021/12/14 06:38:27;;;;;;;46.30;31.02;;;8.40;99.90;;;;;;5126345;28;20047;-67
2021/12/14 06:41:16;;;;;;;44.55;30.17;;;8.40;99.90;;;;;;5096715;28;20044;-67
2021/12/14 06:43:44;;;;;;;44.80;30.23;;;8.50;99.90;;;;;;5125465;28;20035;-59
2021/12/14 06:46:15;;;;;;;46.80;30.00;;;8.50;99.90;;;;;;5126150;28;20035;-64
2021/12/14 06:48:49;;;;;;;48.47;30.25;;;8.40;99.90;;;;;;5083650;28;20048;-66
2021/12/14 06:51:36;;;;;;;48.35;30.63;;;8.40;99.90;;;;;;5114600;28;20055;-67
2021/12/14 06:54:08;;;;;;;;;;;8.40;99.90;;;;;;5084028;28;20059;-65
2021/12/14 06:56:35;;;;;;;48.53;30.95;;;8.40;99.90;;;;;;5116517;28;19919;-67
2021/12/14 06:59:06;;;;;;;52.42;32.35;;;8.40;99.90;;;;;;5116519;28;20069;-67
2021/12/14 07:01:41;;;;;;;49.03;31.55;;;8.40;99.90;;;;;;5090231;28;20040;-66
2021/12/14 07:04:16;;;;;;;48.10;31.05;;;8.40;99.90;;;;;;5109081;28;20051;-66
2021/12/14 07:06:49;;;;;;;60.10;32.83;;;8.40;99.90;;;;;;5105383;28;20044;-66
2021/12/14 07:09:23;;;;;;;53.10;32.47;;;8.40;99.90;;;;;;5098101;28;20083;-64
2021/12/14 07:12:06;;;;;;;50.92;31.42;;;8.40;99.90;;;;;;5107186;28;20119;-66
2021/12/14 07:14:31;;;;;;;53.97;32.70;;;8.40;99.90;;;;;;5106361;28;20048;-68
2021/12/14 07:17:12;;;;;;;51.93;31.93;;;8.50;99.90;;;;;;5125228;28;20100;-64
2021/12/14 07:19:43;;;;;;;54.08;32.63;;;8.40;99.90;;;;;;5102869;28;20040;-66
2021/12/14 07:22:33;;;;;;;54.35;33.05;;;8.50;99.90;;;;;;5086670;28;20089;-66
2021/12/14 07:25:01;;;;;;;52.33;32.75;;;8.40;99.90;;;;;;5098278;28;20052;-65
2021/12/14 07:27:40;;;;;;;53.13;33.95;;;8.40;99.90;;;;;;5086554;28;20074;-65
2021/12/14 07:30:18;;;;;;;55.70;33.60;;;8.40;99.90;;;;;;5121983;28;20054;-64
2021/12/14 07:32:52;;;;;;;61.35;34.55;;;8.40;99.90;;;;;;5125004;28;20047;-65
2021/12/14 07:35:25;;;;;;;60.13;35.88;;;8.40;99.90;;;;;;5105586;28;20035;-64
2021/12/14 07:37:51;;;;;;;67.00;37.03;;;8.40;99.90;;;;;;5106469;28;20040;-63
2021/12/14 07:40:18;;;;;;;65.90;36.22;;;8.40;99.90;;;;;;5105415;28;20127;-64
2021/12/14 07:42:44;;;;;;;61.50;36.95;;;8.40;99.90;;;;;;5124605;28;20054;-62
2021/12/14 07:45:10;;;;;;;;;;;8.40;99.90;;;;;;5105985;28;20044;-65
2021/12/14 07:47:48;;;;;;;73.85;35.72;;;8.40;99.90;;;;;;5104800;28;19942;-65
2021/12/14 07:50:14;;;;;;;75.60;36.88;;;8.40;99.90;;;;;;5124157;28;20036;-66
2021/12/14 07:52:40;;;;;;;76.43;39.22;;;8.40;99.90;;;;;;5123814;28;20441;-66
2021/12/14 07:55:20;;;;;;;85.35;38.67;;;8.40;99.90;;;;;;5102523;28;20077;-66
2021/12/14 07:57:47;;;;;;;79.82;39.63;;;8.40;99.90;;;;;;5097672;28;20498;-65
2021/12/14 08:00:23;;;;;;;81.78;39.80;;;8.40;99.90;;;;;;5105604;28;20044;-64
2021/12/14 08:02:54;;;;;;;82.47;40.17;;;8.40;99.90;;;;;;5124292;28;20115;-64
2021/12/14 08:05:33;;;;;;;77.10;39.08;;;8.40;99.90;;;;;;5105806;28;20112;-65
2021/12/14 08:08:19;;;;;;;78.35;40.75;;;8.40;99.90;;;;;;5105410;28;20057;-65
2021/12/14 08:11:28;;;;;;;86.25;41.75;;;8.40;99.90;;;;;;5124358;28;20047;-64
2021/12/14 08:14:01;;;;;;;88.28;41.30;;;8.40;99.90;;;;;;5105814;28;20503;-64
2021/12/14 08:16:38;;;;;;;88.68;40.05;;;8.40;99.90;;;;;;5102164;28;20055;-65
2021/12/14 08:19:04;;;;;;;;;;;8.40;99.90;;;;;;5116117;28;20074;-65
2021/12/14 08:21:30;;;;;;;76.70;39.35;;;8.40;99.90;;;;;;5105898;28;19916;-65
2021/12/14 08:24:06;;;;;;;82.40;39.33;;;8.40;99.90;;;;;;5124171;28;20058;-65
2021/12/14 08:26:34;;;;;;;90.30;41.17;;;8.40;99.90;;;;;;5123702;28;20039;-64
2021/12/14 08:29:01;;;;;;;104.65;43.15;;;8.40;99.90;;;;;;5123682;28;20039;-64
2021/12/14 08:31:36;;;;;;;80.47;40.35;;;8.40;99.90;;;;;;5104909;28;20062;-64
2021/12/14 08:34:07;;;;;;;91.72;39.92;;;8.50;99.90;;;;;;5101807;28;20035;-64
2021/12/14 08:36:42;;;;;;;84.32;41.13;;;8.50;99.90;;;;;;5102968;28;20039;-59
2021/12/14 08:39:20;;;;;;;81.90;39.53;;;8.50;99.90;;;;;;5115913;28;20196;-65
2021/12/14 08:41:56;;;;;;;83.38;40.60;;;8.50;99.90;;;;;;5118183;28;20044;-64
2021/12/14 08:44:36;;;;;;;88.45;39.83;;;8.50;99.90;;;;;;5105137;28;20054;-69
2021/12/14 08:47:05;;;;;;;87.22;40.80;;;8.50;99.90;;;;;;5105144;28;20039;-66
2021/12/14 08:49:31;;;;;;;90.05;42.15;;;8.50;99.90;;;;;;5104285;28;20089;-64
2021/12/14 08:51:57;;;;;;;87.13;39.25;;;8.50;99.90;;;;;;5104973;28;20111;-69
2021/12/14 08:54:29;;;;;;;91.07;40.70;;;8.50;99.90;;;;;;5123388;28;20387;-65
2021/12/14 08:57:16;;;;;;;91.45;42.08;;;8.50;99.90;;;;;;5123454;28;20293;-65
2021/12/14 08:59:44;;;;;;;85.77;40.10;;;8.50;99.90;;;;;;5118674;28;20116;-65
2021/12/14 09:02:13;;;;;;;85.63;40.63;;;8.50;99.90;;;;;;5105148;28;20309;-66
2021/12/14 09:04:46;;;;;;;81.53;40.63;;;8.50;99.90;;;;;;5104851;28;20047;-65
2021/12/14 09:07:16;;;;;;;83.10;39.25;;;8.50;99.90;;;;;;5123923;28;20381;-65
2021/12/14 09:09:42;;;;;;;92.35;42.00;;;8.50;99.90;;;;;;5123155;28;20069;-65
2021/12/14 09:12:24;;;;;;;92.25;41.03;;;8.60;99.90;;;;;;5104688;28;20051;-65
2021/12/14 09:14:51;;;;;;;89.90;42.33;;;8.60;99.90;;;;;;5104875;28;20179;-65
2021/12/14 09:17:19;;;;;;;83.20;40.42;;;8.60;99.90;;;;;;5120887;28;20092;-65
2021/12/14 09:19:57;;;;;;;86.25;40.65;;;8.60;99.90;;;;;;5112167;28;20077;-65
2021/12/14 09:22:34;;;;;;;89.22;40.75;;;8.60;99.90;;;;;;5117610;28;20123;-67
2021/12/14 09:25:05;;;;;;;81.82;40.00;;;8.60;99.90;;;;;;5084205;28;20086;-66
2021/12/14 09:27:33;;;;;;;89.05;43.28;;;8.60;99.90;;;;;;5104330;28;20454;-67
2021/12/14 09:29:59;;;;;;;83.32;40.33;;;8.60;99.90;;;;;;5109736;28;20044;-69
2021/12/14 09:32:27;;;;;;;79.82;41.55;;;8.60;99.90;;;;;;5058384;28;20062;-65
2021/12/14 09:35:17;;;;;;;86.05;42.17;;;8.70;99.90;;;;;;5081883;28;20054;-65
2021/12/14 09:37:53;;;;;;;93.85;41.80;;;8.70;99.90;;;;;;5115853;28;20039;-65
2021/12/14 09:40:58;;;;;;;78.55;41.63;;;8.70;99.90;;;;;;5105312;28;20040;-66
2021/12/14 09:43:33;;;;;;;88.28;41.00;;;8.70;99.90;;;;;;5091600;28;20036;-67
2021/12/14 09:46:02;;;;;;;83.13;41.13;;;8.70;99.90;;;;;;5113126;28;20094;-66
2021/12/14 09:48:43;;;;;;;85.63;41.38;;;8.80;99.90;;;;;;5097729;28;20097;-68
2021/12/14 09:51:42;;;;;;;72.93;41.13;;;8.80;99.90;;;;;;5090561;28;20064;-65
2021/12/14 09:54:14;;;;;;;71.60;40.65;;;8.80;99.90;;;;;;5091560;28;20431;-64
2021/12/14 09:56:54;;;;;;;77.68;40.17;;;8.80;99.90;;;;;;5088882;28;20131;-64
2021/12/14 09:59:26;;;;;;;93.20;40.28;;;8.90;99.90;;;;;;5091818;28;20044;-64
2021/12/14 10:01:58;;;;;;;75.70;39.88;;;8.90;99.90;;;;;;5114192;28;20093;-64
2021/12/14 10:04:29;;;;;;;79.75;39.72;;;8.80;99.90;;;;;;5112730;28;20048;-65
2021/12/14 10:06:56;;;;;;;73.70;39.63;;;8.90;99.90;;;;;;5097557;28;20116;-63
2021/12/14 10:09:27;;;;;;;69.60;38.63;;;8.90;99.90;;;;;;5110170;28;20062;-63
2021/12/14 10:14:27;;;;;;;72.28;38.75;;;8.90;99.90;;;;;;5095577;28;20094;-60
2021/12/14 10:16:54;;;;;;;75.22;39.92;;;8.90;99.90;;;;;;5061051;28;20070;-63
2021/12/14 10:19:23;;;;;;;75.72;39.70;;;8.90;99.90;;;;;;5112445;28;20469;-63
2021/12/14 10:21:54;;;;;;;65.07;36.78;;;8.90;99.90;;;;;;5095469;28;20164;-63
2021/12/14 10:24:20;;;;;;;70.50;37.70;;;8.90;99.90;;;;;;5094404;28;20051;-65
2021/12/14 10:26:54;;;;;;;78.93;39.70;;;8.90;99.90;;;;;;5106625;28;20827;-64
2021/12/14 10:29:20;;;;;;;78.00;38.17;;;8.90;99.90;;;;;;5092108;28;20050;-63
2021/12/14 10:32:01;;;;;;;;;;;8.80;99.90;;;;;;5096241;28;20043;-64
2021/12/14 10:34:29;;;;;;;71.63;37.40;;;8.80;99.90;;;;;;5109508;28;19981;-64
2021/12/14 10:37:07;;;;;;;71.25;36.95;;;8.80;99.90;;;;;;5105144;28;20067;-64
2021/12/14 10:44:56;;;;;;;77.55;39.17;;;8.80;99.90;;;;;;5109607;28;20491;-62
2021/12/14 10:47:25;;;;;;;72.85;37.20;;;8.90;99.90;;;;;;5089443;28;20044;-63
2021/12/14 10:49:52;;;;;;;72.93;37.17;;;8.90;99.90;;;;;;5085769;28;20052;-63
2021/12/14 10:52:22;;;;;;;68.40;38.95;;;8.90;99.90;;;;;;5087156;28;20044;-64
2021/12/14 10:55:00;;;;;;;70.57;37.22;;;8.90;99.90;;;;;;5113999;28;20048;-64
2021/12/14 10:57:29;;;;;;;65.32;36.75;;;8.90;99.90;;;;;;5091826;28;20063;-64
2021/12/14 10:59:56;;;;;;;71.70;36.25;;;8.90;99.90;;;;;;5105264;28;20153;-64
2021/12/14 11:02:25;;;;;;;69.30;36.15;;;8.90;99.90;;;;;;5105843;28;20123;-64
2021/12/14 11:04:58;;;;;;;71.35;37.50;;;9.00;99.90;;;;;;5107212;28;20032;-65
2021/12/14 11:07:26;;;;;;;73.45;35.30;;;8.90;99.90;;;;;;5089278;28;20043;-64
2021/12/14 11:09:55;;;;;;;77.68;38.08;;;9.00;99.90;;;;;;5068754;28;20036;-63
2021/12/14 11:12:29;;;;;;;71.07;37.28;;;9.00;99.90;;;;;;5107618;28;20340;-64
2021/12/14 11:15:18;;;;;;;79.25;38.42;;;9.00;99.90;;;;;;5085666;28;21288;-63
2021/12/14 11:20:49;;;;;;;67.97;35.95;;;9.00;99.90;;;;;;5105763;28;20097;-64
2021/12/14 11:23:31;;;;;;;69.22;34.97;;;9.00;99.90;;;;;;5090133;28;20131;-64
2021/12/14 11:26:18;;;;;;;82.03;37.88;;;9.00;99.90;;;;;;5088868;28;20047;-64
2021/12/14 11:28:58;;;;;;;72.40;36.85;;;9.00;99.90;;;;;;5087910;28;20571;-64
2021/12/14 11:31:30;;;;;;;66.00;34.33;;;9.00;99.90;;;;;;5106607;28;20397;-64
2021/12/14 11:34:08;;;;;;;69.75;34.78;;;9.00;99.90;;;;;;5109026;28;20044;-63
2021/12/14 11:36:38;;;;;;;78.43;35.40;;;9.10;99.90;;;;;;5084761;28;20120;-63
2021/12/14 11:39:08;;;;;;;71.32;35.13;;;9.10;99.90;;;;;;5096105;28;20044;-63
2021/12/14 11:41:47;;;;;;;71.65;35.05;;;9.10;99.90;;;;;;5111844;28;20348;-63
2021/12/14 11:44:26;;;;;;;68.90;34.88;;;9.10;99.90;;;;;;5111256;28;20044;-64
2021/12/14 11:47:12;;;;;;;70.20;33.80;;;9.10;99.90;;;;;;5088195;28;20060;-63
2021/12/14 11:49:46;;;;;;;73.55;33.28;;;9.10;99.90;;;;;;5102963;28;20467;-64
2021/12/14 11:52:13;;;;;;;64.30;32.30;;;9.10;99.90;;;;;;5108801;28;20091;-62
2021/12/14 11:54:45;;;;;;;67.53;32.85;;;9.10;99.90;;;;;;5096691;28;20066;-62
2021/12/14 11:57:12;;;;;;;62.28;30.85;;;9.10;99.90;;;;;;5107197;28;20420;-62
2021/12/14 11:59:38;;;;;;;64.45;31.10;;;9.10;99.90;;;;;;5089356;28;20044;-66
2021/12/14 12:02:04;;;;;;;69.35;32.47;;;9.10;99.90;;;;;;5099511;28;20130;-64
2021/12/14 12:04:36;;;;;;;68.32;32.95;;;9.10;99.90;;;;;;5084180;28;20415;-63
2021/12/14 12:09:49;;;;;;;66.75;31.70;;;9.20;99.90;;;;;;5107213;28;20111;-64
2021/12/14 12:12:31;;;;;;;64.15;30.23;;;9.20;99.90;;;;;;5110655;28;20092;-66
2021/12/14 12:15:00;;;;;;;64.22;29.33;;;9.20;99.90;;;;;;5105645;28;20077;-67
2021/12/14 12:17:41;;;;;;;51.65;26.10;;;9.20;99.90;;;;;;5086128;28;20090;-65
2021/12/14 12:20:14;;;;;;;58.17;27.50;;;9.20;99.90;;;;;;5087688;28;20060;-71
2021/12/14 12:22:52;;;;;;;54.53;26.48;;;9.20;99.90;;;;;;5090310;28;20089;-70
2021/12/14 12:25:26;;;;;;;64.90;28.33;;;9.20;99.90;;;;;;5108684;28;20171;-68
2021/12/14 12:27:59;;;;;;;56.92;28.52;;;9.20;99.90;;;;;;5086242;28;20074;-68
2021/12/14 12:30:51;;;;;;;54.85;25.92;;;9.20;99.90;;;;;;5089750;28;20123;-69
2021/12/14 12:33:28;;;;;;;52.63;26.65;;;9.20;99.90;;;;;;5088495;28;20047;-67
2021/12/14 12:36:03;;;;;;;56.53;26.70;;;9.20;99.90;;;;;;5102824;28;20153;-67
2021/12/14 12:38:35;;;;;;;49.22;23.52;;;9.20;99.90;;;;;;5088527;28;20122;-70
2021/12/14 12:41:09;;;;;;;52.38;25.83;;;9.20;99.90;;;;;;5108094;28;20166;-66
2021/12/14 12:43:56;;;;;;;56.65;25.23;;;9.20;99.90;;;;;;5094330;28;20058;-66
2021/12/14 12:46:37;;;;;;;66.68;25.85;;;9.30;99.90;;;;;;5091357;28;20069;-66
2021/12/14 12:49:14;;;;;;;55.60;24.00;;;9.30;99.90;;;;;;5111554;28;20142;-66
2021/12/14 12:51:39;;;;;;;;;;;9.20;99.90;;;;;;5088330;28;20466;-64
2021/12/14 12:54:17;;;;;;;45.10;22.13;;;9.20;99.90;;;;;;5103156;28;19974;-69
2021/12/14 12:56:48;;;;;;;43.47;21.67;;;9.20;99.90;;;;;;5078063;28;20051;-67
2021/12/14 12:59:57;;;;;;;53.92;22.20;;;9.20;99.90;;;;;;5105024;28;20088;-64
2021/12/14 13:02:52;;;;;;;40.08;20.30;;;9.30;99.90;;;;;;5107174;28;20070;-65
2021/12/14 13:05:37;;;;;;;42.45;20.23;;;9.30;99.90;;;;;;5006956;28;20180;-64
2021/12/14 13:08:31;;;;;;;50.08;21.25;;;9.30;99.90;;;;;;5009635;28;20159;-65
2021/12/14 13:11:19;;;;;;;46.33;21.17;;;9.30;99.90;;;;;;5010709;28;20072;-62
2021/12/14 13:14:05;;;;;;;49.00;21.48;;;9.30;99.90;;;;;;5007456;28;20061;-61
2021/12/14 13:16:43;;;;;;;42.13;20.65;;;9.30;99.90;;;;;;5012456;28;20089;-61
2021/12/14 13:19:13;;;;;;;40.67;19.70;;;9.30;99.90;;;;;;5023475;28;20559;-61
2021/12/14 13:21:48;;;;;;;46.92;20.75;;;9.30;99.90;;;;;;5020649;28;20049;-62
2021/12/14 13:24:27;;;;;;;40.83;20.70;;;9.30;99.90;;;;;;5019310;28;20042;-62
2021/12/14 13:27:12;;;;;;;46.83;20.63;;;9.30;99.90;;;;;;5002871;28;20057;-63
2021/12/14 13:29:58;;;;;;;45.28;20.10;;;9.30;99.90;;;;;;5023126;28;20198;-62
2021/12/14 13:32:33;;;;;;;43.58;19.90;;;9.30;99.90;;;;;;5011083;28;20075;-62
2021/12/14 13:35:08;;;;;;;38.90;18.60;;;9.30;99.90;;;;;;5012317;28;20046;-62
2021/12/14 13:37:39;;;;;;;34.28;17.92;;;9.40;99.90;;;;;;5029676;28;20105;-62
2021/12/14 13:40:20;;;;;;;35.85;19.27;;;9.40;99.90;;;;;;5028351;28;20053;-61
2021/12/14 13:42:51;;;;;;;38.92;18.42;;;9.40;99.90;;;;;;5035181;28;20161;-61
2021/12/14 13:45:32;;;;;;;34.22;17.80;;;9.40;99.90;;;;;;5087112;28;20109;-69
2021/12/14 13:47:59;;;;;;;34.20;16.67;;;9.40;99.90;;;;;;5086960;28;20044;-61
2021/12/14 13:50:34;;;;;;;37.10;17.25;;;9.40;99.90;;;;;;5113050;28;20161;-61
2021/12/14 13:53:00;;;;;;;35.85;17.75;;;9.40;99.90;;;;;;5104314;28;20040;-61
2021/12/14 13:55:34;;;;;;;37.17;17.98;;;9.40;99.90;;;;;;5091241;28;20066;-60